createdAt,value
2018-04-27T00:00:34.120Z,6.77
2018-04-27T00:06:38.613Z,12.03
2018-04-27T00:12:43.033Z,13.10
2018-04-27T00:18:47.413Z,18.80
2018-04-27T00:24:51.815Z,7.50
2018-04-27T00:30:56.934Z,11.53
2018-04-27T00:37:01.348Z,11.97
2018-04-27T00:43:05.842Z,19.60
2018-04-27T00:49:10.985Z,7.47
2018-04-27T00:55:15.387Z,12.33
2018-04-27T01:01:19.746Z,16.37
2018-04-27T01:07:24.110Z,26.33
2018-04-27T01:13:28.604Z,16.83
2018-04-27T01:19:33.015Z,9.83
2018-04-27T01:25:37.454Z,9.13
2018-04-27T01:31:41.831Z,11.23
2018-04-27T01:37:46.171Z,10.70
2018-04-27T01:43:50.861Z,7.80
2018-04-27T01:49:55.254Z,10.67
2018-04-27T01:55:59.591Z,11.87
2018-04-27T02:02:03.975Z,11.37
2018-04-27T02:08:09.153Z,10.70
2018-04-27T02:14:13.527Z,11.40
2018-04-27T02:20:18.652Z,9.10
2018-04-27T02:26:23.019Z,10.97
2018-04-27T02:32:27.440Z,15.07
2018-04-27T02:38:31.968Z,22.80
2018-04-27T02:44:37.363Z,16.20
2018-04-27T02:50:41.728Z,11.23
2018-04-27T02:56:46.906Z,14.03
2018-04-27T03:02:51.268Z,11.67
2018-04-27T03:08:55.714Z,16.27
2018-04-27T03:15:00.080Z,13.60
2018-04-27T03:21:04.720Z,18.90
2018-04-27T03:27:09.140Z,13.60
2018-04-27T03:33:13.598Z,19.70
2018-04-27T03:39:18.021Z,19.53
2018-04-27T03:45:22.473Z,17.53
2018-04-27T03:51:26.824Z,12.43
2018-04-27T03:57:31.208Z,18.80
2018-04-27T04:03:53.491Z,16.93
2018-04-27T04:09:57.860Z,13.67
2018-04-27T04:16:03.091Z,15.03
2018-04-27T04:22:07.477Z,15.20
2018-04-27T04:28:11.821Z,12.23
2018-04-27T04:34:16.199Z,12.00
2018-04-27T04:40:20.566Z,12.93
2018-04-27T04:46:24.974Z,10.47
2018-04-27T04:52:29.409Z,10.90
2018-04-27T04:58:33.762Z,12.43
2018-04-27T05:04:38.976Z,13.33
2018-04-27T05:10:43.469Z,13.60
2018-04-27T05:16:47.861Z,10.63
2018-04-27T05:22:52.241Z,18.87
2018-04-27T05:28:56.612Z,16.90
2018-04-27T05:35:01.070Z,21.47
2018-04-27T05:41:05.520Z,14.47
2018-04-27T05:47:10.700Z,14.13
2018-04-27T05:53:15.054Z,14.93
2018-04-27T05:59:20.931Z,12.80
2018-04-27T06:05:25.273Z,12.23
2018-04-27T06:11:30.398Z,12.53
2018-04-27T06:17:34.884Z,9.07
2018-04-27T06:23:39.221Z,14.43
2018-04-27T06:29:44.346Z,10.10
2018-04-27T06:35:48.695Z,10.80
2018-04-27T06:41:53.093Z,12.63
2018-04-27T06:47:57.463Z,12.37
2018-04-27T06:54:01.963Z,10.43
2018-04-27T07:00:06.516Z,10.90
2018-04-27T07:06:10.884Z,13.37
2018-04-27T07:12:15.307Z,15.43
2018-04-27T07:18:19.708Z,11.73
2018-04-27T07:24:24.160Z,13.70
2018-04-27T07:30:28.564Z,13.90
2018-04-27T07:36:33.781Z,7.33
2018-04-27T07:42:38.154Z,7.87
2018-04-27T07:48:42.558Z,10.80
2018-04-27T07:54:46.916Z,13.83
2018-04-27T08:00:51.274Z,13.63
2018-04-27T08:06:55.669Z,11.27
2018-04-27T08:13:00.091Z,9.77
2018-04-27T08:19:05.438Z,14.23
2018-04-27T08:25:09.807Z,9.97
2018-04-27T08:31:14.162Z,14.20
2018-04-27T08:37:18.512Z,9.90
2018-04-27T08:43:22.893Z,22.77
2018-04-27T08:49:27.265Z,7.40
2018-04-27T08:55:31.651Z,5.87
2018-04-27T09:01:36.206Z,7.40
2018-04-27T09:07:40.571Z,11.07
2018-04-27T09:13:44.938Z,11.23
2018-04-27T09:19:49.305Z,8.10
2018-04-27T09:25:53.678Z,12.23
2018-04-27T09:31:58.063Z,6.80
2018-04-27T09:38:02.735Z,6.60
2018-04-27T09:44:07.393Z,3.63
2018-04-27T09:50:11.785Z,6.30
2018-04-27T09:56:16.240Z,6.33
2018-04-27T10:02:21.340Z,4.40
2018-04-27T10:08:25.705Z,4.47
2018-04-27T10:14:30.077Z,4.67
2018-04-27T10:20:34.769Z,3.23
2018-04-27T10:26:39.175Z,4.50
2018-04-27T10:32:43.555Z,4.67
2018-04-27T10:38:48.009Z,8.00
2018-04-27T10:44:52.465Z,6.00
2018-04-27T10:50:56.815Z,5.53
2018-04-27T10:57:02.047Z,6.07
2018-04-27T11:03:06.689Z,6.10
2018-04-27T11:09:11.068Z,4.60
2018-04-27T11:15:16.201Z,4.13
2018-04-27T11:21:20.565Z,9.83
2018-04-27T11:27:25.022Z,5.13
2018-04-27T11:33:30.150Z,5.83
2018-04-27T11:39:35.103Z,6.87
2018-04-27T11:45:39.615Z,6.40
2018-04-27T11:51:43.970Z,9.10
2018-04-27T11:57:48.447Z,7.17
2018-04-27T12:03:52.808Z,6.40
2018-04-27T12:09:58.030Z,6.23
2018-04-27T12:16:02.812Z,6.90
2018-04-27T12:22:07.291Z,4.13
2018-04-27T12:28:11.747Z,6.37
2018-04-27T12:34:16.124Z,5.40
2018-04-27T12:40:20.498Z,5.90
2018-04-27T12:46:24.872Z,4.60
2018-04-27T12:52:29.270Z,6.27
2018-04-27T12:58:33.648Z,5.87
2018-04-27T13:04:38.098Z,7.07
2018-04-27T13:10:42.445Z,7.80
2018-04-27T13:16:47.655Z,5.47
2018-04-27T13:22:52.857Z,6.47
2018-04-27T13:28:57.230Z,8.13
2018-04-27T13:35:01.627Z,5.87
2018-04-27T13:41:06.133Z,7.00
2018-04-27T13:47:11.295Z,6.83
2018-04-27T13:53:15.760Z,6.30
2018-04-27T13:59:20.141Z,7.23
2018-04-27T14:05:24.630Z,4.10
2018-04-27T14:11:28.987Z,4.57
2018-04-27T14:17:33.903Z,6.20
2018-04-27T14:23:38.282Z,5.33
2018-04-27T14:29:42.629Z,4.70
2018-04-27T14:35:46.996Z,6.53
2018-04-27T14:41:52.208Z,8.17
2018-04-27T14:47:56.564Z,4.67
2018-04-27T14:54:00.963Z,7.93
2018-04-27T15:00:05.546Z,7.20
2018-04-27T15:06:09.908Z,12.00
2018-04-27T15:12:14.256Z,5.90
2018-04-27T15:18:20.270Z,5.47
2018-04-27T15:24:24.674Z,10.20
2018-04-27T15:30:29.036Z,9.97
2018-04-27T15:36:34.257Z,7.20
2018-04-27T15:42:38.731Z,6.77
2018-04-27T15:48:43.189Z,9.80
2018-04-27T15:54:47.564Z,4.67
2018-04-27T16:00:51.952Z,6.93
2018-04-27T16:06:56.320Z,4.83
2018-04-27T16:30:04.947Z,7.87
2018-04-27T16:36:09.466Z,8.37
2018-04-27T16:42:13.845Z,6.60
2018-04-27T16:48:18.378Z,12.10
2018-04-27T16:54:22.799Z,5.47
2018-04-27T17:00:27.179Z,8.03
2018-04-27T17:06:31.535Z,3.77
2018-04-27T17:12:36.771Z,6.03
2018-04-27T17:18:41.207Z,3.90
2018-04-27T17:24:45.689Z,4.10
2018-04-27T17:30:50.820Z,13.13
2018-04-27T17:36:55.311Z,4.17
2018-04-27T17:42:59.638Z,5.10
2018-04-27T17:49:04.043Z,4.53
2018-04-27T17:55:08.435Z,3.77
2018-04-27T18:01:12.856Z,6.80
2018-04-27T18:07:18.004Z,4.13
2018-04-27T18:13:22.360Z,3.40
2018-04-27T18:19:26.706Z,5.33
2018-04-27T18:25:31.124Z,14.77
2018-04-27T18:31:35.636Z,6.03
2018-04-27T18:37:39.994Z,2.77
2018-04-27T18:43:44.364Z,7.20
2018-04-27T18:49:48.731Z,4.80
2018-04-27T18:55:53.876Z,4.33
2018-04-27T19:01:58.271Z,5.90
2018-04-27T19:08:02.632Z,7.70
2018-04-27T19:14:07.231Z,3.60
2018-04-27T19:20:11.634Z,6.43
2018-04-27T19:26:16.069Z,14.63
2018-04-27T19:32:20.502Z,3.43
2018-04-27T19:38:25.678Z,5.43
2018-04-27T19:44:30.162Z,6.23
2018-04-27T19:50:36.556Z,7.47
2018-04-27T19:56:40.975Z,5.40
2018-04-27T20:02:45.370Z,13.40
2018-04-27T20:08:49.777Z,6.73
2018-04-27T20:14:54.175Z,3.17
2018-04-27T20:21:01.163Z,6.90
2018-04-27T20:27:06.241Z,5.53
2018-04-27T20:33:13.367Z,10.87
2018-04-27T20:39:17.746Z,2.83
2018-04-27T20:45:24.766Z,6.20
2018-04-27T20:51:29.180Z,2.40
2018-04-27T20:57:33.621Z,4.73
2018-04-27T21:03:38.503Z,4.20
2018-04-27T21:09:42.903Z,4.83
2018-04-27T21:15:48.551Z,9.50
2018-04-27T21:21:52.993Z,5.40
2018-04-27T21:27:57.413Z,4.20
2018-04-27T21:34:02.286Z,4.20
2018-04-27T21:40:07.458Z,5.70
2018-04-27T21:46:12.575Z,4.13
2018-04-27T21:52:17.778Z,5.43
2018-04-27T21:58:26.751Z,8.23
2018-04-27T22:04:31.131Z,8.60
2018-04-27T22:10:36.482Z,7.87
2018-04-27T22:16:43.562Z,8.63
2018-04-27T22:22:47.986Z,5.17
2018-04-27T22:28:53.328Z,9.83
2018-04-27T22:41:35.061Z,5.53
2018-04-27T22:54:46.564Z,7.50
2018-04-27T23:00:55.782Z,6.03
2018-04-27T23:07:02.189Z,8.13
2018-04-27T23:13:08.633Z,5.10
2018-04-27T23:19:14.285Z,9.33
2018-04-27T23:25:25.272Z,11.00
2018-04-27T23:31:33.971Z,10.60
2018-04-27T23:37:40.634Z,8.40
2018-04-27T23:50:10.024Z,11.77
2018-04-27T23:56:15.098Z,10.73
